sensor_id;sensor_type;location;lat;lon;timestamp;temperature;humidity
76099;DHT22;64828;49.956;8.636;2023-07-20T00:00:14;19.30;59.00
76099;DHT22;64828;49.956;8.636;2023-07-20T00:00:30;19.30;59.20
76099;DHT22;64828;49.956;8.636;2023-07-20T00:00:46;19.30;59.20
76099;DHT22;64828;49.956;8.636;2023-07-20T00:01:01;19.30;59.10
76099;DHT22;64828;49.956;8.636;2023-07-20T00:01:17;19.30;59.00
76099;DHT22;64828;49.956;8.636;2023-07-20T00:01:32;19.30;59.10
76099;DHT22;64828;49.956;8.636;2023-07-20T00:01:48;19.20;59.00
76099;DHT22;64828;49.956;8.636;2023-07-20T00:02:04;19.20;59.10
76099;DHT22;64828;49.956;8.636;2023-07-20T00:02:20;19.20;59.10
76099;DHT22;64828;49.956;8.636;2023-07-20T00:02:36;19.20;59.10
76099;DHT22;64828;49.956;8.636;2023-07-20T00:02:51;19.30;59.10
76099;DHT22;64828;49.956;8.636;2023-07-20T00:03:12;19.20;59.20
76099;DHT22;64828;49.956;8.636;2023-07-20T00:03:34;19.20;59.20
76099;DHT22;64828;49.956;8.636;2023-07-20T00:03:49;19.20;59.30
76099;DHT22;64828;49.956;8.636;2023-07-20T00:04:10;19.20;59.30
76099;DHT22;64828;49.956;8.636;2023-07-20T00:04:25;19.20;59.30
76099;DHT22;64828;49.956;8.636;2023-07-20T00:04:41;19.20;59.40
76099;DHT22;64828;49.956;8.636;2023-07-20T00:04:56;19.20;59.50
76099;DHT22;64828;49.956;8.636;2023-07-20T00:05:12;19.20;59.50
76099;DHT22;64828;49.956;8.636;2023-07-20T00:05:27;19.20;59.50
76099;DHT22;64828;49.956;8.636;2023-07-20T00:05:43;19.20;59.50
76099;DHT22;64828;49.956;8.636;2023-07-20T00:05:59;19.10;59.50
76099;DHT22;64828;49.956;8.636;2023-07-20T00:06:14;19.10;59.50
76099;DHT22;64828;49.956;8.636;2023-07-20T00:06:30;19.10;59.40
76099;DHT22;64828;49.956;8.636;2023-07-20T00:06:45;19.10;59.30
76099;DHT22;64828;49.956;8.636;2023-07-20T00:07:01;19.10;59.40
76099;DHT22;64828;49.956;8.636;2023-07-20T00:07:16;19.20;59.40
76099;DHT22;64828;49.956;8.636;2023-07-20T00:07:32;19.10;59.40
76099;DHT22;64828;49.956;8.636;2023-07-20T00:07:47;19.10;59.40
76099;DHT22;64828;49.956;8.636;2023-07-20T00:08:07;19.10;59.40
76099;DHT22;64828;49.956;8.636;2023-07-20T00:08:22;19.10;59.40
76099;DHT22;64828;49.956;8.636;2023-07-20T00:08:38;19.10;59.40
76099;DHT22;64828;49.956;8.636;2023-07-20T00:08:54;19.10;59.50
76099;DHT22;64828;49.956;8.636;2023-07-20T00:09:10;19.10;59.50
76099;DHT22;64828;49.956;8.636;2023-07-20T00:09:25;19.10;59.40
76099;DHT22;64828;49.956;8.636;2023-07-20T00:09:41;19.10;59.40
76099;DHT22;64828;49.956;8.636;2023-07-20T00:09:56;19.10;59.50
76099;DHT22;64828;49.956;8.636;2023-07-20T00:10:12;19.10;59.50
76099;DHT22;64828;49.956;8.636;2023-07-20T00:10:27;19.10;59.80
76099;DHT22;64828;49.956;8.636;2023-07-20T00:10:43;19.10;59.60
76099;DHT22;64828;49.956;8.636;2023-07-20T00:10:59;19.10;59.40
76099;DHT22;64828;49.956;8.636;2023-07-20T00:11:14;19.10;59.40
76099;DHT22;64828;49.956;8.636;2023-07-20T00:11:30;19.10;59.50
76099;DHT22;64828;49.956;8.636;2023-07-20T00:11:49;19.10;59.50
76099;DHT22;64828;49.956;8.636;2023-07-20T00:12:08;19.10;59.60
76099;DHT22;64828;49.956;8.636;2023-07-20T00:12:24;19.10;59.70
76099;DHT22;64828;49.956;8.636;2023-07-20T00:12:39;19.10;59.70
76099;DHT22;64828;49.956;8.636;2023-07-20T00:12:55;19.00;59.80
76099;DHT22;64828;49.956;8.636;2023-07-20T00:13:11;19.10;59.70
76099;DHT22;64828;49.956;8.636;2023-07-20T00:13:27;19.00;59.70
76099;DHT22;64828;49.956;8.636;2023-07-20T00:13:43;19.10;59.80
76099;DHT22;64828;49.956;8.636;2023-07-20T00:13:58;19.00;59.80
76099;DHT22;64828;49.956;8.636;2023-07-20T00:14:14;19.00;59.70
76099;DHT22;64828;49.956;8.636;2023-07-20T00:14:29;19.00;59.80
76099;DHT22;64828;49.956;8.636;2023-07-20T00:14:45;19.00;60.00
76099;DHT22;64828;49.956;8.636;2023-07-20T00:15:01;19.00;60.40
76099;DHT22;64828;49.956;8.636;2023-07-20T00:15:16;19.00;60.00
76099;DHT22;64828;49.956;8.636;2023-07-20T00:15:32;19.00;59.90
76099;DHT22;64828;49.956;8.636;2023-07-20T00:15:47;19.00;59.90
76099;DHT22;64828;49.956;8.636;2023-07-20T00:16:03;19.00;59.90
76099;DHT22;64828;49.956;8.636;2023-07-20T00:16:18;19.00;60.00
76099;DHT22;64828;49.956;8.636;2023-07-20T00:16:34;19.00;59.90
76099;DHT22;64828;49.956;8.636;2023-07-20T00:16:50;19.00;59.90
76099;DHT22;64828;49.956;8.636;2023-07-20T00:17:10;19.00;60.10
76099;DHT22;64828;49.956;8.636;2023-07-20T00:17:26;19.00;59.90
76099;DHT22;64828;49.956;8.636;2023-07-20T00:17:42;19.00;60.30
76099;DHT22;64828;49.956;8.636;2023-07-20T00:17:57;19.00;60.30
76099;DHT22;64828;49.956;8.636;2023-07-20T00:18:13;19.00;60.00
76099;DHT22;64828;49.956;8.636;2023-07-20T00:18:29;19.00;60.00
76099;DHT22;64828;49.956;8.636;2023-07-20T00:18:44;19.00;60.30
76099;DHT22;64828;49.956;8.636;2023-07-20T00:18:59;19.00;60.40
76099;DHT22;64828;49.956;8.636;2023-07-20T00:19:15;18.90;60.30
76099;DHT22;64828;49.956;8.636;2023-07-20T00:19:31;19.00;60.50
76099;DHT22;64828;49.956;8.636;2023-07-20T00:19:47;19.00;60.30
76099;DHT22;64828;49.956;8.636;2023-07-20T00:20:03;18.90;60.10
76099;DHT22;64828;49.956;8.636;2023-07-20T00:20:22;19.00;59.90
76099;DHT22;64828;49.956;8.636;2023-07-20T00:20:38;19.00;60.00
76099;DHT22;64828;49.956;8.636;2023-07-20T00:20:53;18.90;60.00
76099;DHT22;64828;49.956;8.636;2023-07-20T00:21:09;18.90;60.10
76099;DHT22;64828;49.956;8.636;2023-07-20T00:21:25;19.00;59.90
76099;DHT22;64828;49.956;8.636;2023-07-20T00:21:40;18.90;60.00
76099;DHT22;64828;49.956;8.636;2023-07-20T00:21:58;18.90;60.10
76099;DHT22;64828;49.956;8.636;2023-07-20T00:22:13;18.90;60.10
76099;DHT22;64828;49.956;8.636;2023-07-20T00:22:28;18.90;60.00
76099;DHT22;64828;49.956;8.636;2023-07-20T00:22:44;18.90;60.00
76099;DHT22;64828;49.956;8.636;2023-07-20T00:22:59;18.90;60.20
76099;DHT22;64828;49.956;8.636;2023-07-20T00:23:15;18.90;60.20
76099;DHT22;64828;49.956;8.636;2023-07-20T00:23:30;18.90;60.20
76099;DHT22;64828;49.956;8.636;2023-07-20T00:23:46;18.90;60.00
76099;DHT22;64828;49.956;8.636;2023-07-20T00:24:01;18.90;60.10
76099;DHT22;64828;49.956;8.636;2023-07-20T00:24:17;18.90;60.00
76099;DHT22;64828;49.956;8.636;2023-07-20T00:24:33;18.90;59.90
76099;DHT22;64828;49.956;8.636;2023-07-20T00:24:48;18.90;60.30
76099;DHT22;64828;49.956;8.636;2023-07-20T00:25:05;18.90;60.20
76099;DHT22;64828;49.956;8.636;2023-07-20T00:25:20;18.90;60.50
76099;DHT22;64828;49.956;8.636;2023-07-20T00:25:36;18.90;60.20
76099;DHT22;64828;49.956;8.636;2023-07-20T00:25:52;18.90;60.10
76099;DHT22;64828;49.956;8.636;2023-07-20T00:26:07;18.90;60.10
76099;DHT22;64828;49.956;8.636;2023-07-20T00:26:23;18.80;60.30
76099;DHT22;64828;49.956;8.636;2023-07-20T00:26:38;18.90;60.20
76099;DHT22;64828;49.956;8.636;2023-07-20T00:26:53;18.90;60.20
76099;DHT22;64828;49.956;8.636;2023-07-20T00:27:09;18.80;60.20
76099;DHT22;64828;49.956;8.636;2023-07-20T00:27:24;18.90;60.10
76099;DHT22;64828;49.956;8.636;2023-07-20T00:27:40;18.90;60.20
76099;DHT22;64828;49.956;8.636;2023-07-20T00:27:55;18.90;60.10
76099;DHT22;64828;49.956;8.636;2023-07-20T00:28:11;18.90;60.20
76099;DHT22;64828;49.956;8.636;2023-07-20T00:28:26;18.90;60.30
76099;DHT22;64828;49.956;8.636;2023-07-20T00:28:42;18.90;60.30
76099;DHT22;64828;49.956;8.636;2023-07-20T00:28:58;18.80;60.30
76099;DHT22;64828;49.956;8.636;2023-07-20T00:29:14;18.80;60.40
76099;DHT22;64828;49.956;8.636;2023-07-20T00:29:29;18.80;60.40
76099;DHT22;64828;49.956;8.636;2023-07-20T00:29:44;18.90;60.40
76099;DHT22;64828;49.956;8.636;2023-07-20T00:30:00;18.80;60.50
76099;DHT22;64828;49.956;8.636;2023-07-20T00:30:16;18.80;60.50
76099;DHT22;64828;49.956;8.636;2023-07-20T00:30:31;18.80;60.50
76099;DHT22;64828;49.956;8.636;2023-07-20T00:30:47;18.80;60.60
76099;DHT22;64828;49.956;8.636;2023-07-20T00:31:02;18.80;60.50
76099;DHT22;64828;49.956;8.636;2023-07-20T00:31:18;18.80;60.50
76099;DHT22;64828;49.956;8.636;2023-07-20T00:31:33;18.80;60.70
76099;DHT22;64828;49.956;8.636;2023-07-20T00:31:52;18.80;60.70
76099;DHT22;64828;49.956;8.636;2023-07-20T00:32:07;18.80;60.70
76099;DHT22;64828;49.956;8.636;2023-07-20T00:32:23;18.70;60.90
76099;DHT22;64828;49.956;8.636;2023-07-20T00:32:38;18.70;60.90
76099;DHT22;64828;49.956;8.636;2023-07-20T00:32:54;18.70;60.90
76099;DHT22;64828;49.956;8.636;2023-07-20T00:33:11;18.70;60.90
76099;DHT22;64828;49.956;8.636;2023-07-20T00:33:27;18.70;60.90
76099;DHT22;64828;49.956;8.636;2023-07-20T00:33:42;18.70;61.00
76099;DHT22;64828;49.956;8.636;2023-07-20T00:33:58;18.70;61.00
76099;DHT22;64828;49.956;8.636;2023-07-20T00:34:13;18.70;61.10
76099;DHT22;64828;49.956;8.636;2023-07-20T00:34:29;18.70;61.10
76099;DHT22;64828;49.956;8.636;2023-07-20T00:34:44;18.70;61.10
76099;DHT22;64828;49.956;8.636;2023-07-20T00:35:00;18.70;61.20
76099;DHT22;64828;49.956;8.636;2023-07-20T00:35:15;18.70;61.20
76099;DHT22;64828;49.956;8.636;2023-07-20T00:35:31;18.60;61.20
76099;DHT22;64828;49.956;8.636;2023-07-20T00:35:46;18.70;61.30
76099;DHT22;64828;49.956;8.636;2023-07-20T00:36:02;18.70;61.40
76099;DHT22;64828;49.956;8.636;2023-07-20T00:36:17;18.70;61.30
76099;DHT22;64828;49.956;8.636;2023-07-20T00:36:33;18.60;61.40
76099;DHT22;64828;49.956;8.636;2023-07-20T00:36:48;18.60;61.30
76099;DHT22;64828;49.956;8.636;2023-07-20T00:37:04;18.60;61.30
76099;DHT22;64828;49.956;8.636;2023-07-20T00:37:20;18.60;61.30
76099;DHT22;64828;49.956;8.636;2023-07-20T00:37:35;18.60;61.40
76099;DHT22;64828;49.956;8.636;2023-07-20T00:37:51;18.60;61.50
76099;DHT22;64828;49.956;8.636;2023-07-20T00:38:06;18.60;61.40
76099;DHT22;64828;49.956;8.636;2023-07-20T00:38:22;18.60;61.60
76099;DHT22;64828;49.956;8.636;2023-07-20T00:38:37;18.60;61.60
76099;DHT22;64828;49.956;8.636;2023-07-20T00:38:53;18.60;61.60
76099;DHT22;64828;49.956;8.636;2023-07-20T00:39:08;18.50;61.60
76099;DHT22;64828;49.956;8.636;2023-07-20T00:39:24;18.60;61.60
76099;DHT22;64828;49.956;8.636;2023-07-20T00:39:39;18.60;61.80
76099;DHT22;64828;49.956;8.636;2023-07-20T00:39:55;18.60;61.70
76099;DHT22;64828;49.956;8.636;2023-07-20T00:40:10;18.50;61.70
76099;DHT22;64828;49.956;8.636;2023-07-20T00:40:26;18.50;61.60
76099;DHT22;64828;49.956;8.636;2023-07-20T00:40:42;18.50;61.60
76099;DHT22;64828;49.956;8.636;2023-07-20T00:40:57;18.50;61.60
76099;DHT22;64828;49.956;8.636;2023-07-20T00:41:13;18.50;61.60
76099;DHT22;64828;49.956;8.636;2023-07-20T00:41:28;18.50;61.60
76099;DHT22;64828;49.956;8.636;2023-07-20T00:41:44;18.50;61.60
76099;DHT22;64828;49.956;8.636;2023-07-20T00:42:00;18.50;61.60
76099;DHT22;64828;49.956;8.636;2023-07-20T00:42:15;18.50;61.60
76099;DHT22;64828;49.956;8.636;2023-07-20T00:42:31;18.50;61.60
76099;DHT22;64828;49.956;8.636;2023-07-20T00:42:46;18.50;61.90
76099;DHT22;64828;49.956;8.636;2023-07-20T00:43:02;18.50;61.80
76099;DHT22;64828;49.956;8.636;2023-07-20T00:43:18;18.50;61.80
76099;DHT22;64828;49.956;8.636;2023-07-20T00:43:34;18.40;61.80
76099;DHT22;64828;49.956;8.636;2023-07-20T00:43:50;18.40;61.90
76099;DHT22;64828;49.956;8.636;2023-07-20T00:44:06;18.40;62.00
76099;DHT22;64828;49.956;8.636;2023-07-20T00:44:21;18.40;62.10
76099;DHT22;64828;49.956;8.636;2023-07-20T00:44:37;18.40;61.90
76099;DHT22;64828;49.956;8.636;2023-07-20T00:44:52;18.40;62.00
76099;DHT22;64828;49.956;8.636;2023-07-20T00:45:08;18.40;62.00
76099;DHT22;64828;49.956;8.636;2023-07-20T00:45:24;18.40;62.00
76099;DHT22;64828;49.956;8.636;2023-07-20T00:45:41;18.40;62.10
76099;DHT22;64828;49.956;8.636;2023-07-20T00:45:57;18.40;62.20
76099;DHT22;64828;49.956;8.636;2023-07-20T00:46:13;18.30;62.20
76099;DHT22;64828;49.956;8.636;2023-07-20T00:46:29;18.30;62.20
76099;DHT22;64828;49.956;8.636;2023-07-20T00:46:45;18.30;62.20
76099;DHT22;64828;49.956;8.636;2023-07-20T00:47:01;18.30;62.40
76099;DHT22;64828;49.956;8.636;2023-07-20T00:47:17;18.30;62.50
76099;DHT22;64828;49.956;8.636;2023-07-20T00:47:33;18.30;62.70
76099;DHT22;64828;49.956;8.636;2023-07-20T00:47:48;18.30;62.70
76099;DHT22;64828;49.956;8.636;2023-07-20T00:48:04;18.20;62.70
76099;DHT22;64828;49.956;8.636;2023-07-20T00:48:21;18.20;62.80
76099;DHT22;64828;49.956;8.636;2023-07-20T00:48:37;18.20;62.80
76099;DHT22;64828;49.956;8.636;2023-07-20T00:48:53;18.20;62.60
76099;DHT22;64828;49.956;8.636;2023-07-20T00:49:08;18.20;62.70
76099;DHT22;64828;49.956;8.636;2023-07-20T00:49:24;18.20;62.70
76099;DHT22;64828;49.956;8.636;2023-07-20T00:49:40;18.20;62.70
76099;DHT22;64828;49.956;8.636;2023-07-20T00:49:55;18.20;63.00
76099;DHT22;64828;49.956;8.636;2023-07-20T00:50:11;18.20;63.10
76099;DHT22;64828;49.956;8.636;2023-07-20T00:50:28;18.20;63.10
76099;DHT22;64828;49.956;8.636;2023-07-20T00:50:45;18.10;63.00
76099;DHT22;64828;49.956;8.636;2023-07-20T00:51:02;18.10;63.40
76099;DHT22;64828;49.956;8.636;2023-07-20T00:51:18;18.10;63.40
76099;DHT22;64828;49.956;8.636;2023-07-20T00:51:33;18.10;63.10
76099;DHT22;64828;49.956;8.636;2023-07-20T00:51:49;18.20;63.00
76099;DHT22;64828;49.956;8.636;2023-07-20T00:52:07;18.10;63.00
76099;DHT22;64828;49.956;8.636;2023-07-20T00:52:23;18.10;63.10
76099;DHT22;64828;49.956;8.636;2023-07-20T00:52:41;18.10;63.30
76099;DHT22;64828;49.956;8.636;2023-07-20T00:52:57;18.10;63.10
76099;DHT22;64828;49.956;8.636;2023-07-20T00:53:13;18.10;63.20
76099;DHT22;64828;49.956;8.636;2023-07-20T00:53:28;18.10;63.00
76099;DHT22;64828;49.956;8.636;2023-07-20T00:53:44;18.10;63.70
76099;DHT22;64828;49.956;8.636;2023-07-20T00:53:59;18.10;63.40
76099;DHT22;64828;49.956;8.636;2023-07-20T00:54:16;18.00;63.30
76099;DHT22;64828;49.956;8.636;2023-07-20T00:54:32;18.00;63.20
76099;DHT22;64828;49.956;8.636;2023-07-20T00:54:47;18.00;63.30
76099;DHT22;64828;49.956;8.636;2023-07-20T00:55:03;18.00;63.30
76099;DHT22;64828;49.956;8.636;2023-07-20T00:55:19;18.10;63.30
76099;DHT22;64828;49.956;8.636;2023-07-20T00:55:35;18.00;63.20
76099;DHT22;64828;49.956;8.636;2023-07-20T00:55:51;18.00;63.40
76099;DHT22;64828;49.956;8.636;2023-07-20T00:56:06;18.00;63.50
76099;DHT22;64828;49.956;8.636;2023-07-20T00:56:23;18.00;63.40
76099;DHT22;64828;49.956;8.636;2023-07-20T00:56:39;18.00;63.40
76099;DHT22;64828;49.956;8.636;2023-07-20T00:56:54;18.00;63.60
76099;DHT22;64828;49.956;8.636;2023-07-20T00:57:12;18.00;63.80
76099;DHT22;64828;49.956;8.636;2023-07-20T00:57:29;18.00;63.70
76099;DHT22;64828;49.956;8.636;2023-07-20T00:57:45;18.00;63.70
76099;DHT22;64828;49.956;8.636;2023-07-20T00:58:04;18.00;63.60
76099;DHT22;64828;49.956;8.636;2023-07-20T00:58:20;18.00;63.60
76099;DHT22;64828;49.956;8.636;2023-07-20T00:58:36;18.00;63.60
76099;DHT22;64828;49.956;8.636;2023-07-20T00:58:52;18.00;63.90
76099;DHT22;64828;49.956;8.636;2023-07-20T00:59:07;17.90;63.60
76099;DHT22;64828;49.956;8.636;2023-07-20T00:59:23;17.90;63.70
76099;DHT22;64828;49.956;8.636;2023-07-20T00:59:39;17.90;63.70
76099;DHT22;64828;49.956;8.636;2023-07-20T00:59:55;17.90;63.80
76099;DHT22;64828;49.956;8.636;2023-07-20T01:00:10;17.90;64.10
76099;DHT22;64828;49.956;8.636;2023-07-20T01:00:26;17.90;63.80
76099;DHT22;64828;49.956;8.636;2023-07-20T01:00:42;17.90;63.70
76099;DHT22;64828;49.956;8.636;2023-07-20T01:00:58;17.90;63.70
76099;DHT22;64828;49.956;8.636;2023-07-20T01:01:13;17.90;63.70
76099;DHT22;64828;49.956;8.636;2023-07-20T01:01:29;17.90;63.90
76099;DHT22;64828;49.956;8.636;2023-07-20T01:01:45;17.90;63.90
76099;DHT22;64828;49.956;8.636;2023-07-20T01:02:00;17.90;63.90
76099;DHT22;64828;49.956;8.636;2023-07-20T01:02:16;17.90;64.00
76099;DHT22;64828;49.956;8.636;2023-07-20T01:02:31;17.80;63.90
76099;DHT22;64828;49.956;8.636;2023-07-20T01:02:47;17.80;64.70
76099;DHT22;64828;49.956;8.636;2023-07-20T01:03:02;17.80;64.20
76099;DHT22;64828;49.956;8.636;2023-07-20T01:03:18;17.80;64.10
76099;DHT22;64828;49.956;8.636;2023-07-20T01:03:33;17.80;64.10
76099;DHT22;64828;49.956;8.636;2023-07-20T01:03:49;17.80;64.00
76099;DHT22;64828;49.956;8.636;2023-07-20T01:04:04;17.80;64.10
76099;DHT22;64828;49.956;8.636;2023-07-20T01:04:20;17.80;64.10
76099;DHT22;64828;49.956;8.636;2023-07-20T01:04:36;17.80;64.20
76099;DHT22;64828;49.956;8.636;2023-07-20T01:04:52;17.80;64.30
76099;DHT22;64828;49.956;8.636;2023-07-20T01:05:08;17.80;64.30
76099;DHT22;64828;49.956;8.636;2023-07-20T01:05:48;17.80;64.40
76099;DHT22;64828;49.956;8.636;2023-07-20T01:06:35;17.80;64.40
76099;DHT22;64828;49.956;8.636;2023-07-20T01:07:26;17.80;64.50
76099;DHT22;64828;49.956;8.636;2023-07-20T01:07:46;17.80;64.40
76099;DHT22;64828;49.956;8.636;2023-07-20T01:08:09;17.70;64.50
76099;DHT22;64828;49.956;8.636;2023-07-20T01:08:50;17.70;64.60
76099;DHT22;64828;49.956;8.636;2023-07-20T01:09:18;17.70;64.80
76099;DHT22;64828;49.956;8.636;2023-07-20T01:09:39;17.60;64.70
76099;DHT22;64828;49.956;8.636;2023-07-20T01:10:06;17.60;64.80
76099;DHT22;64828;49.956;8.636;2023-07-20T01:10:35;17.60;64.80
76099;DHT22;64828;49.956;8.636;2023-07-20T01:10:59;17.60;64.90
76099;DHT22;64828;49.956;8.636;2023-07-20T01:11:27;17.60;64.90
76099;DHT22;64828;49.956;8.636;2023-07-20T01:12:05;17.60;65.00
76099;DHT22;64828;49.956;8.636;2023-07-20T01:12:27;17.60;65.00
76099;DHT22;64828;49.956;8.636;2023-07-20T01:12:46;17.50;65.10
76099;DHT22;64828;49.956;8.636;2023-07-20T01:13:02;17.50;65.10
76099;DHT22;64828;49.956;8.636;2023-07-20T01:13:20;17.60;65.10
76099;DHT22;64828;49.956;8.636;2023-07-20T01:13:37;17.50;65.20
76099;DHT22;64828;49.956;8.636;2023-07-20T01:13:53;17.50;65.30
76099;DHT22;64828;49.956;8.636;2023-07-20T01:14:09;17.50;65.20
76099;DHT22;64828;49.956;8.636;2023-07-20T01:14:25;17.50;65.30
76099;DHT22;64828;49.956;8.636;2023-07-20T01:14:41;17.50;65.40
76099;DHT22;64828;49.956;8.636;2023-07-20T01:14:57;17.50;65.40
76099;DHT22;64828;49.956;8.636;2023-07-20T01:15:13;17.50;65.30
76099;DHT22;64828;49.956;8.636;2023-07-20T01:15:28;17.50;65.30
76099;DHT22;64828;49.956;8.636;2023-07-20T01:15:49;17.50;65.40
76099;DHT22;64828;49.956;8.636;2023-07-20T01:16:06;17.50;65.40
76099;DHT22;64828;49.956;8.636;2023-07-20T01:16:21;17.40;65.40
76099;DHT22;64828;49.956;8.636;2023-07-20T01:16:36;17.40;65.50
76099;DHT22;64828;49.956;8.636;2023-07-20T01:16:52;17.50;65.50
76099;DHT22;64828;49.956;8.636;2023-07-20T01:17:07;17.40;65.40
76099;DHT22;64828;49.956;8.636;2023-07-20T01:17:23;17.40;65.50
76099;DHT22;64828;49.956;8.636;2023-07-20T01:17:39;17.40;65.60
76099;DHT22;64828;49.956;8.636;2023-07-20T01:17:55;17.40;65.60
76099;DHT22;64828;49.956;8.636;2023-07-20T01:18:10;17.40;65.60
76099;DHT22;64828;49.956;8.636;2023-07-20T01:18:26;17.40;65.80
76099;DHT22;64828;49.956;8.636;2023-07-20T01:18:42;17.40;65.80
76099;DHT22;64828;49.956;8.636;2023-07-20T01:18:58;17.30;65.90
76099;DHT22;64828;49.956;8.636;2023-07-20T01:19:14;17.30;65.90
76099;DHT22;64828;49.956;8.636;2023-07-20T01:19:30;17.30;66.10
76099;DHT22;64828;49.956;8.636;2023-07-20T01:19:45;17.30;66.00
76099;DHT22;64828;49.956;8.636;2023-07-20T01:20:01;17.30;66.10
76099;DHT22;64828;49.956;8.636;2023-07-20T01:20:18;17.30;66.10
76099;DHT22;64828;49.956;8.636;2023-07-20T01:20:34;17.30;66.20
76099;DHT22;64828;49.956;8.636;2023-07-20T01:20:51;17.30;66.30
76099;DHT22;64828;49.956;8.636;2023-07-20T01:21:12;17.30;66.30
76099;DHT22;64828;49.956;8.636;2023-07-20T01:21:37;17.30;66.40
76099;DHT22;64828;49.956;8.636;2023-07-20T01:24:19;17.20;66.60
76099;DHT22;64828;49.956;8.636;2023-07-20T01:25:08;17.20;66.70
76099;DHT22;64828;49.956;8.636;2023-07-20T01:27:36;17.00;67.20
76099;DHT22;64828;49.956;8.636;2023-07-20T01:31:08;16.90;67.60
76099;DHT22;64828;49.956;8.636;2023-07-20T01:31:25;16.80;67.60
76099;DHT22;64828;49.956;8.636;2023-07-20T01:31:41;16.80;67.60
76099;DHT22;64828;49.956;8.636;2023-07-20T01:31:58;16.80;67.70
76099;DHT22;64828;49.956;8.636;2023-07-20T01:32:16;16.80;67.70
76099;DHT22;64828;49.956;8.636;2023-07-20T01:32:33;16.80;68.00
76099;DHT22;64828;49.956;8.636;2023-07-20T01:32:50;16.70;68.10
76099;DHT22;64828;49.956;8.636;2023-07-20T01:33:08;16.80;68.20
76099;DHT22;64828;49.956;8.636;2023-07-20T01:33:24;16.70;68.10
76099;DHT22;64828;49.956;8.636;2023-07-20T01:33:42;16.70;68.10
76099;DHT22;64828;49.956;8.636;2023-07-20T01:33:58;16.70;68.20
76099;DHT22;64828;49.956;8.636;2023-07-20T01:34:17;16.70;68.20
76099;DHT22;64828;49.956;8.636;2023-07-20T01:34:35;16.70;68.40
76099;DHT22;64828;49.956;8.636;2023-07-20T01:34:52;16.70;68.40
76099;DHT22;64828;49.956;8.636;2023-07-20T01:35:11;16.70;68.30
76099;DHT22;64828;49.956;8.636;2023-07-20T01:35:30;16.70;68.40
76099;DHT22;64828;49.956;8.636;2023-07-20T01:35:58;16.60;68.50
76099;DHT22;64828;49.956;8.636;2023-07-20T01:36:17;16.60;68.70
76099;DHT22;64828;49.956;8.636;2023-07-20T01:36:36;16.60;68.70
76099;DHT22;64828;49.956;8.636;2023-07-20T01:36:53;16.60;68.80
76099;DHT22;64828;49.956;8.636;2023-07-20T01:37:10;16.50;69.00
76099;DHT22;64828;49.956;8.636;2023-07-20T01:37:27;16.50;69.10
76099;DHT22;64828;49.956;8.636;2023-07-20T01:37:46;16.50;69.20
76099;DHT22;64828;49.956;8.636;2023-07-20T01:38:02;16.50;69.20
76099;DHT22;64828;49.956;8.636;2023-07-20T01:38:19;16.50;69.10
76099;DHT22;64828;49.956;8.636;2023-07-20T01:38:36;16.50;69.20
76099;DHT22;64828;49.956;8.636;2023-07-20T01:38:52;16.50;68.90
76099;DHT22;64828;49.956;8.636;2023-07-20T01:39:08;16.50;69.00
76099;DHT22;64828;49.956;8.636;2023-07-20T01:39:24;16.40;68.90
76099;DHT22;64828;49.956;8.636;2023-07-20T01:39:40;16.40;69.00
76099;DHT22;64828;49.956;8.636;2023-07-20T01:39:56;16.40;69.10
76099;DHT22;64828;49.956;8.636;2023-07-20T01:40:15;16.40;69.10
76099;DHT22;64828;49.956;8.636;2023-07-20T01:40:32;16.40;69.20
76099;DHT22;64828;49.956;8.636;2023-07-20T01:40:47;16.40;69.30
76099;DHT22;64828;49.956;8.636;2023-07-20T01:41:03;16.40;69.40
76099;DHT22;64828;49.956;8.636;2023-07-20T01:41:20;16.40;69.40
76099;DHT22;64828;49.956;8.636;2023-07-20T01:41:36;16.30;69.30
76099;DHT22;64828;49.956;8.636;2023-07-20T01:41:51;16.40;69.50
76099;DHT22;64828;49.956;8.636;2023-07-20T01:42:08;16.30;69.70
76099;DHT22;64828;49.956;8.636;2023-07-20T01:42:24;16.30;69.90
76099;DHT22;64828;49.956;8.636;2023-07-20T01:42:44;16.30;70.20
76099;DHT22;64828;49.956;8.636;2023-07-20T01:43:00;16.20;70.40
76099;DHT22;64828;49.956;8.636;2023-07-20T01:43:17;16.30;70.50
76099;DHT22;64828;49.956;8.636;2023-07-20T01:43:33;16.20;70.40
76099;DHT22;64828;49.956;8.636;2023-07-20T01:43:49;16.20;70.30
76099;DHT22;64828;49.956;8.636;2023-07-20T01:44:04;16.20;70.80
76099;DHT22;64828;49.956;8.636;2023-07-20T01:44:20;16.20;71.20
76099;DHT22;64828;49.956;8.636;2023-07-20T01:44:37;16.20;70.90
76099;DHT22;64828;49.956;8.636;2023-07-20T01:44:52;16.20;70.70
76099;DHT22;64828;49.956;8.636;2023-07-20T01:45:09;16.10;70.60
76099;DHT22;64828;49.956;8.636;2023-07-20T01:45:24;16.10;70.60
76099;DHT22;64828;49.956;8.636;2023-07-20T01:45:40;16.10;70.50
76099;DHT22;64828;49.956;8.636;2023-07-20T01:45:55;16.10;70.50
76099;DHT22;64828;49.956;8.636;2023-07-20T01:46:11;16.10;70.50
76099;DHT22;64828;49.956;8.636;2023-07-20T01:46:26;16.00;70.70
76099;DHT22;64828;49.956;8.636;2023-07-20T01:46:42;16.10;70.90
76099;DHT22;64828;49.956;8.636;2023-07-20T01:46:57;16.10;71.30
76099;DHT22;64828;49.956;8.636;2023-07-20T01:47:13;16.00;71.40
76099;DHT22;64828;49.956;8.636;2023-07-20T01:47:28;16.00;71.50
76099;DHT22;64828;49.956;8.636;2023-07-20T01:47:44;16.00;71.50
76099;DHT22;64828;49.956;8.636;2023-07-20T01:47:59;16.00;71.40
76099;DHT22;64828;49.956;8.636;2023-07-20T01:48:15;16.00;71.70
76099;DHT22;64828;49.956;8.636;2023-07-20T01:48:30;16.00;71.90
76099;DHT22;64828;49.956;8.636;2023-07-20T01:48:46;16.00;72.00
76099;DHT22;64828;49.956;8.636;2023-07-20T01:49:02;16.00;71.80
76099;DHT22;64828;49.956;8.636;2023-07-20T01:49:17;16.00;71.70
76099;DHT22;64828;49.956;8.636;2023-07-20T01:49:32;15.90;71.70
76099;DHT22;64828;49.956;8.636;2023-07-20T01:49:48;15.90;71.60
76099;DHT22;64828;49.956;8.636;2023-07-20T01:50:04;15.90;71.60
76099;DHT22;64828;49.956;8.636;2023-07-20T01:50:20;15.90;72.10
76099;DHT22;64828;49.956;8.636;2023-07-20T01:50:35;15.90;72.50
76099;DHT22;64828;49.956;8.636;2023-07-20T01:50:51;15.90;72.60
76099;DHT22;64828;49.956;8.636;2023-07-20T01:51:06;15.80;72.30
76099;DHT22;64828;49.956;8.636;2023-07-20T01:51:22;15.80;72.10
76099;DHT22;64828;49.956;8.636;2023-07-20T01:51:37;15.80;72.20
76099;DHT22;64828;49.956;8.636;2023-07-20T01:51:53;15.80;72.00
76099;DHT22;64828;49.956;8.636;2023-07-20T01:52:08;15.80;71.90
76099;DHT22;64828;49.956;8.636;2023-07-20T01:52:24;15.80;71.90
76099;DHT22;64828;49.956;8.636;2023-07-20T01:52:39;15.70;71.90
76099;DHT22;64828;49.956;8.636;2023-07-20T01:52:55;15.80;71.70
76099;DHT22;64828;49.956;8.636;2023-07-20T01:53:11;15.80;71.80
76099;DHT22;64828;49.956;8.636;2023-07-20T01:53:27;15.70;72.00
76099;DHT22;64828;49.956;8.636;2023-07-20T01:53:42;15.70;72.20